Time;durP1;ratioP1;P1;durP2;ratioP2;P2;SDS_P1;SDS_P2;PMS_P1;PMS_P2;Temp;Humidity;BMP_temperature;BMP_pressure;BME280_temperature;BME280_humidity;BME280_pressure;Samples;Min_cycle;Max_cycle;Signal;HPM_P1;HPM_P2
2021/09/29 00:00:16;;;;;;;11.20;3.03;;;;;;;;;;5034243;28;20398;-75
2021/09/29 00:02:42;;;;;;;7.70;3.33;;;;;;;;;;5034748;28;20393;-76
2021/09/29 00:05:28;;;;;;;6.60;2.83;;;11.20;1.00;;;;;;5034202;28;20458;-75
2021/09/29 00:07:54;;;;;;;5.53;2.70;;;;;;;;;;5034211;28;20454;-75
2021/09/29 00:10:29;;;;;;;8.63;3.40;;;;;;;;;;5034946;28;20441;-75
2021/09/29 00:12:55;;;;;;;6.53;3.07;;;;;;;;;;5034987;28;20395;-75
2021/09/29 00:15:46;;;;;;;8.03;3.17;;;11.10;1.00;;;;;;5034773;28;20454;-75
2021/09/29 00:18:12;;;;;;;4.70;3.03;;;;;;;;;;5033919;28;20795;-75
2021/09/29 00:20:40;;;;;;;6.43;2.93;;;;;;;;;;5034355;28;20886;-75
2021/09/29 00:23:11;;;;;;;5.17;2.63;;;;;;;;;;5034387;28;20394;-75
2021/09/29 00:25:41;;;;;;;6.30;2.93;;;;;;;;;;5034494;28;20447;-75
2021/09/29 00:28:17;;;;;;;4.77;2.60;;;;;;;;;;5032248;28;20423;-76
2021/09/29 00:31:02;;;;;;;6.60;2.83;;;;;;;;;;5033584;28;20417;-76
2021/09/29 00:33:29;;;;;;;7.17;3.17;;;;;;;;;;5034315;28;20491;-76
2021/09/29 00:35:55;;;;;;;7.57;3.10;;;;;;;;;;5033678;28;20501;-76
2021/09/29 00:38:23;;;;;;;5.77;3.20;;;;;;;;;;5033551;28;20898;-76
2021/09/29 00:40:52;;;;;;;16.60;3.80;;;;;;;;;;5032549;28;20738;-76
2021/09/29 00:43:18;;;;;;;6.23;2.80;;;;;;;;;;5019556;28;20439;-76
2021/09/29 00:45:47;;;;;;;7.23;3.00;;;;;;;;;;5014393;28;20451;-76
2021/09/29 00:48:13;;;;;;;9.97;3.40;;;;;;;;;;5020777;28;20419;-76
2021/09/29 00:50:39;;;;;;;7.80;3.00;;;;;;;;;;5021594;28;20954;-76
2021/09/29 00:53:05;;;;;;;6.93;2.90;;;;;;;;;;5012638;28;20837;-76
2021/09/29 00:55:32;;;;;;;14.17;3.67;;;;;;;;;;5014879;28;20719;-76
2021/09/29 00:57:58;;;;;;;10.87;3.70;;;;;;;;;;5017862;28;21012;-75
2021/09/29 01:00:28;;;;;;;4.40;3.00;;;;;;;;;;5034119;28;20391;-75
2021/09/29 01:02:55;;;;;;;7.57;3.00;;;;;;;;;;5033782;28;20493;-75
2021/09/29 01:05:29;;;;;;;9.10;3.87;;;11.20;1.00;;;;;;5026263;28;20478;-75
2021/09/29 01:08:08;;;;;;;6.43;2.80;;;11.20;1.00;;;;;;5031992;28;20894;-75
2021/09/29 01:10:40;;;;;;;12.90;3.00;;;;;;;;;;5033744;28;20399;-75
2021/09/29 01:13:34;;;;;;;6.70;2.73;;;;;;;;;;5031282;28;20419;-76
2021/09/29 01:16:07;;;;;;;6.37;3.40;;;11.30;1.00;;;;;;5014397;28;20471;-76
2021/09/29 01:18:40;;;;;;;10.37;3.50;;;11.40;1.00;;;;;;5015732;28;20450;-76
2021/09/29 01:21:17;;;;;;;4.60;2.40;;;;;;;;;;5033597;28;20403;-76
2021/09/29 01:23:47;;;;;;;5.07;3.03;;;;;;;;;;5033063;28;20451;-76
2021/09/29 01:26:41;;;;;;;5.60;2.70;;;11.60;1.00;;;;;;5013860;28;20448;-76
2021/09/29 01:29:20;;;;;;;5.93;3.20;;;11.60;1.00;;;;;;5017104;28;20434;-76
2021/09/29 01:31:47;;;;;;;12.90;3.30;;;11.60;1.00;;;;;;5033694;28;20395;-76
2021/09/29 01:34:17;;;;;;;6.13;3.13;;;;;;;;;;5022217;28;20420;-76
2021/09/29 01:36:47;;;;;;;8.33;3.37;;;;;;;;;;5013748;28;21012;-76
2021/09/29 01:39:46;;;;;;;11.77;3.83;;;11.70;1.00;;;;;;5014996;28;20392;-76
2021/09/29 01:42:12;;;;;;;10.70;3.10;;;11.90;1.00;;;;;;5013889;28;20475;-75
2021/09/29 01:44:38;;;;;;;8.43;3.30;;;;;;;;;;5013596;28;20903;-75
2021/09/29 01:47:17;;;;;;;7.70;3.27;;;;;;;;;;5013602;28;20451;-75
2021/09/29 01:49:54;;;;;;;23.43;4.30;;;;;;;;;;5031004;28;20403;-75
2021/09/29 01:52:23;;;;;;;8.63;3.33;;;12.00;1.00;;;;;;5034311;28;20452;-75
2021/09/29 01:55:00;;;;;;;13.70;3.97;;;12.00;1.00;;;;;;5036942;28;20770;-75
2021/09/29 01:57:26;;;;;;;8.20;3.63;;;;;;;;;;5037402;28;20399;-76
2021/09/29 01:59:59;;;;;;;7.67;3.70;;;;;;;;;;5036942;28;20435;-76
2021/09/29 02:02:25;;;;;;;17.63;3.83;;;;;;;;;;5037407;28;20426;-76
2021/09/29 02:04:59;;;;;;;8.93;3.60;;;;;;;;;;5036383;28;20489;-77
2021/09/29 02:07:41;;;;;;;10.53;3.87;;;12.20;1.00;;;;;;5037078;28;20494;-77
2021/09/29 02:10:08;;;;;;;6.83;3.30;;;12.30;1.00;;;;;;5036127;28;20434;-76
2021/09/29 02:12:35;;;;;;;7.43;3.23;;;;;;;;;;5029713;28;20511;-76
2021/09/29 02:15:22;;;;;;;8.80;3.00;;;;;;;;;;5017312;28;20432;-76
2021/09/29 02:17:48;;;;;;;12.23;3.83;;;;;;;;;;5018563;28;20392;-76
2021/09/29 02:20:15;;;;;;;14.30;4.10;;;;;;;;;;5035325;28;20419;-76
2021/09/29 02:22:53;;;;;;;6.90;3.47;;;;;;;;;;5036688;28;20886;-76
2021/09/29 02:25:35;;;;;;;5.17;2.93;;;;;;;;;;5018992;28;20426;-76
2021/09/29 02:28:01;;;;;;;8.00;3.07;;;;;;;;;;5017362;28;20848;-76
2021/09/29 02:30:46;;;;;;;8.00;3.43;;;12.60;1.00;;;;;;5022381;28;20450;-76
2021/09/29 02:33:12;;;;;;;7.90;3.50;;;;;;;;;;5036486;28;20457;-76
2021/09/29 02:35:38;;;;;;;7.83;3.40;;;;;;;;;;5034822;28;20768;-76
2021/09/29 02:38:04;;;;;;;7.90;3.47;;;;;;;;;;5036529;28;20391;-76
2021/09/29 02:40:30;;;;;;;11.03;3.90;;;;;;;;;;5035518;28;20422;-76
2021/09/29 02:42:56;;;;;;;9.37;4.60;;;;;;;;;;5036558;28;20427;-75
2021/09/29 02:45:22;;;;;;;8.57;3.30;;;;;;;;;;5035518;28;20458;-75
2021/09/29 02:47:48;;;;;;;10.40;3.70;;;;;;;;;;5036160;28;20411;-75
2021/09/29 02:50:28;;;;;;;15.43;3.50;;;;;;;;;;5035409;28;20410;-75
2021/09/29 02:52:54;;;;;;;14.03;3.93;;;;;;;;;;5036027;28;20407;-75
2021/09/29 02:55:40;;;;;;;7.77;3.63;;;12.80;1.00;;;;;;5019745;28;20435;-75
2021/09/29 02:58:06;;;;;;;6.83;3.17;;;;;;;;;;5028994;28;20419;-75
2021/09/29 03:00:33;;;;;;;8.67;3.70;;;;;;;;;;5035698;28;20423;-75
2021/09/29 03:02:59;;;;;;;7.23;3.60;;;;;;;;;;5035489;28;20415;-75
2021/09/29 03:05:25;;;;;;;10.27;4.17;;;;;;;;;;5035364;28;20517;-75
2021/09/29 03:07:52;;;;;;;10.70;3.90;;;;;;;;;;5035906;28;20403;-75
2021/09/29 03:10:29;;;;;;;9.50;3.57;;;;;;;;;;5033615;28;20426;-75
2021/09/29 03:13:16;;;;;;;5.50;3.07;;;;;;;;;;5017386;28;20423;-75
2021/09/29 03:15:42;;;;;;;6.67;3.37;;;;;;;;;;5016267;28;20435;-75
2021/09/29 03:18:11;;;;;;;6.10;3.00;;;;;;;;;;5015944;28;20527;-75
2021/09/29 03:20:41;;;;;;;5.97;3.10;;;;;;;;;;5016017;28;20407;-75
2021/09/29 03:23:07;;;;;;;3.80;3.03;;;;;;;;;;5034656;28;20419;-75
2021/09/29 03:25:33;;;;;;;5.37;2.67;;;;;;;;;;5033904;28;20577;-75
2021/09/29 03:27:59;;;;;;;6.90;2.83;;;;;;;;;;5033988;28;20415;-75
2021/09/29 03:30:25;;;;;;;5.40;3.00;;;;;;;;;;5035408;28;20508;-75
2021/09/29 03:32:53;;;;;;;5.30;3.03;;;;;;;;;;5035045;28;20420;-75
2021/09/29 03:35:19;;;;;;;8.53;3.20;;;;;;;;;;5020208;28;20435;-75
2021/09/29 03:37:45;;;;;;;6.70;2.70;;;;;;;;;;5015453;28;20396;-75
2021/09/29 03:40:17;;;;;;;10.73;3.90;;;;;;;;;;5028895;28;20438;-75
2021/09/29 03:42:47;;;;;;;6.37;3.30;;;;;;;;;;5034474;28;20884;-75
2021/09/29 03:45:13;;;;;;;7.53;3.23;;;;;;;;;;5021856;28;20938;-75
2021/09/29 03:47:42;;;;;;;6.23;3.33;;;;;;;;;;5015346;28;20416;-75
2021/09/29 03:50:28;;;;;;;8.00;3.43;;;12.90;1.00;;;;;;5034568;28;20416;-75
2021/09/29 03:52:59;;;;;;;14.70;3.70;;;;;;;;;;5034554;28;20778;-75
2021/09/29 03:55:25;;;;;;;13.30;3.43;;;;;;;;;;5020906;28;20422;-75
2021/09/29 03:57:59;;;;;;;5.03;2.87;;;;;;;;;;5015201;28;20451;-75
2021/09/29 04:00:25;;;;;;;6.20;3.17;;;;;;;;;;5015211;28;20835;-75
2021/09/29 04:02:51;;;;;;;6.07;3.00;;;;;;;;;;5023064;28;20410;-75
2021/09/29 04:05:52;;;;;;;7.53;3.00;;;12.70;1.00;;;;;;5034026;28;20818;-75
2021/09/29 04:08:22;;;;;;;5.73;3.37;;;;;;;;;;5034736;28;20536;-75
2021/09/29 04:10:48;;;;;;;7.93;2.90;;;;;;;;;;5034257;28;20391;-75
2021/09/29 04:13:38;;;;;;;6.97;3.33;;;;;;;;;;5023086;28;20502;-76
2021/09/29 04:16:04;;;;;;;5.50;3.20;;;;;;;;;;5014371;28;20399;-76
2021/09/29 04:18:41;;;;;;;5.77;2.90;;;;;;;;;;5034394;28;20923;-76
2021/09/29 04:21:07;;;;;;;11.20;3.70;;;;;;;;;;5034084;28;20480;-76
2021/09/29 04:23:35;;;;;;;6.27;3.03;;;;;;;;;;5034002;28;20416;-76
2021/09/29 04:26:11;;;;;;;5.83;3.10;;;;;;;;;;5034371;28;20462;-76
2021/09/29 04:28:41;;;;;;;11.63;3.43;;;;;;;;;;5033997;28;20403;-76
2021/09/29 04:31:11;;;;;;;12.53;3.73;;;;;;;;;;5033811;28;20743;-76
2021/09/29 04:33:47;;;;;;;5.37;3.33;;;;;;;;;;5033729;28;20921;-76
2021/09/29 04:36:13;;;;;;;7.70;2.77;;;;;;;;;;5034057;28;20398;-76
2021/09/29 04:38:47;;;;;;;5.97;2.97;;;;;;;;;;5034311;28;20403;-76
2021/09/29 04:44:34;;;;;;;14.87;3.70;;;11.90;1.00;;;;;;5034379;28;20445;-76
2021/09/29 04:47:00;;;;;;;5.40;2.90;;;;;;;;;;5034126;28;20447;-76
2021/09/29 04:49:27;;;;;;;14.00;3.80;;;;;;;;;;5033492;28;20334;-76
2021/09/29 04:51:53;;;;;;;7.97;2.93;;;;;;;;;;5033395;28;20420;-76
2021/09/29 04:54:19;;;;;;;6.80;3.00;;;;;;;;;;5033966;28;20411;-76
2021/09/29 04:56:47;;;;;;;4.53;2.83;;;;;;;;;;5022711;28;20506;-76
2021/09/29 04:59:17;;;;;;;9.37;3.43;;;;;;;;;;5015615;28;20475;-76
2021/09/29 05:02:18;;;;;;;7.47;3.60;;;11.30;1.00;;;;;;5033565;28;20878;-76
2021/09/29 05:04:44;;;;;;;5.77;2.83;;;;;;;;;;5014246;28;20396;-76
2021/09/29 05:07:24;;;;;;;5.43;3.20;;;11.20;1.00;;;;;;5014001;28;20554;-76
2021/09/29 05:09:50;;;;;;;7.13;3.40;;;;;;;;;;5013969;28;20404;-76
2021/09/29 05:12:30;;;;;;;8.80;3.10;;;11.10;1.00;;;;;;5014410;28;20459;-76
2021/09/29 05:14:57;;;;;;;5.90;2.77;;;11.10;1.00;;;;;;5014255;28;20468;-75
2021/09/29 05:17:40;;;;;;;6.97;3.50;;;;;;;;;;5013828;28;20396;-75
2021/09/29 05:20:17;;;;;;;8.93;3.60;;;;;;;;;;5013924;28;20868;-75
2021/09/29 05:22:47;;;;;;;5.37;2.90;;;;;;;;;;5020158;28;20488;-75
2021/09/29 05:25:29;;;;;;;7.50;3.77;;;;;;;;;;5033798;28;20406;-75
2021/09/29 05:27:56;;;;;;;6.30;3.17;;;10.90;1.00;;;;;;5037282;28;20426;-75
2021/09/29 05:30:22;;;;;;;10.30;3.50;;;;;;;;;;5036769;28;20422;-76
2021/09/29 05:32:48;;;;;;;9.93;3.73;;;;;;;;;;5032040;28;20463;-76
2021/09/29 05:35:17;;;;;;;8.93;3.60;;;;;;;;;;5026928;28;20436;-76
2021/09/29 05:38:28;;;;;;;12.77;4.50;;;10.90;1.00;;;;;;5038101;28;20817;-76
2021/09/29 05:40:59;;;;;;;9.63;3.90;;;;;;;;;;5018709;28;20486;-76
2021/09/29 05:43:25;;;;;;;18.90;4.03;;;;;;;;;;5024787;28;20833;-76
2021/09/29 05:45:52;;;;;;;15.50;4.50;;;;;;;;;;5037133;28;20466;-75
2021/09/29 05:48:29;;;;;;;5.60;3.37;;;;;;;;;;5037377;28;20722;-75
2021/09/29 05:50:59;;;;;;;7.80;3.73;;;;;;;;;;5037445;28;20402;-76
2021/09/29 05:53:25;;;;;;;14.73;3.90;;;;;;;;;;5035294;28;20513;-75
2021/09/29 05:55:51;;;;;;;9.13;3.80;;;;;;;;;;5036160;28;20937;-75
2021/09/29 05:58:17;;;;;;;12.00;4.60;;;;;;;;;;5035777;28;20433;-75
2021/09/29 06:00:47;;;;;;;8.03;3.27;;;;;;;;;;5037441;28;20395;-75
2021/09/29 06:03:13;;;;;;;18.40;4.17;;;;;;;;;;5037061;28;20530;-75
2021/09/29 06:05:47;;;;;;;13.43;4.00;;;;;;;;;;5029515;28;20495;-75
2021/09/29 06:08:23;;;;;;;11.70;3.47;;;;;;;;;;5036759;28;20420;-75
2021/09/29 06:10:49;;;;;;;8.43;3.93;;;;;;;;;;5036891;28;20445;-75
2021/09/29 06:13:15;;;;;;;7.43;3.27;;;;;;;;;;5036789;28;20458;-75
2021/09/29 06:15:47;;;;;;;11.83;4.03;;;;;;;;;;5036198;28;20482;-76
2021/09/29 06:18:29;;;;;;;6.90;3.50;;;;;;;;;;5036793;28;20402;-76
2021/09/29 06:21:07;;;;;;;11.93;3.83;;;;;;;;;;5036592;28;20881;-76
2021/09/29 06:23:41;;;;;;;9.30;3.60;;;;;;;;;;5036590;28;20821;-76
2021/09/29 06:26:07;;;;;;;10.83;4.50;;;;;;;;;;5032839;28;20463;-76
2021/09/29 06:28:41;;;;;;;33.43;6.07;;;;;;;;;;5032868;28;20418;-76
2021/09/29 06:31:07;;;;;;;31.70;6.90;;;11.50;1.00;;;;;;5019476;28;20426;-75
2021/09/29 06:33:33;;;;;;;36.20;8.17;;;;;;;;;;5024554;28;20807;-75
2021/09/29 06:36:00;;;;;;;22.10;5.23;;;11.60;1.00;;;;;;5016921;28;20420;-75
2021/09/29 06:38:27;;;;;;;19.13;5.50;;;;;;;;;;5035660;28;20409;-75
2021/09/29 06:40:53;;;;;;;16.23;4.77;;;;;;;;;;5036111;28;20391;-75
2021/09/29 06:43:23;;;;;;;28.17;5.47;;;;;;;;;;5035861;28;20435;-76
2021/09/29 06:45:59;;;;;;;24.60;5.00;;;;;;;;;;5020029;28;20481;-75
2021/09/29 06:48:25;;;;;;;9.20;4.50;;;;;;;;;;5036242;28;20402;-75
2021/09/29 06:51:22;;;;;;;9.90;4.57;;;11.90;1.00;;;;;;5036398;28;20396;-75
2021/09/29 06:53:48;;;;;;;16.07;5.83;;;;;;;;;;5035139;28;20407;-75
2021/09/29 06:56:34;;;;;;;14.77;5.70;;;12.00;1.00;;;;;;5030736;28;20411;-76
2021/09/29 06:59:00;;;;;;;184.63;14.27;;;;;;;;;;5014581;28;20415;-75
2021/09/29 07:01:35;;;;;;;13.37;5.70;;;;;;;;;;5035320;28;20895;-75
2021/09/29 07:04:01;;;;;;;14.17;5.90;;;;;;;;;;5034687;28;20381;-75
2021/09/29 07:06:29;;;;;;;23.93;5.83;;;;;;;;;;5028409;28;20967;-75
2021/09/29 07:08:55;;;;;;;13.93;6.00;;;;;;;;;;5035631;28;20755;-75
2021/09/29 07:11:29;;;;;;;19.00;6.00;;;;;;;;;;5035455;28;20411;-75
2021/09/29 07:14:02;;;;;;;13.50;6.03;;;;;;;;;;5035561;28;20738;-75
2021/09/29 07:16:35;;;;;;;17.30;5.90;;;;;;;;;;5035459;28;20402;-75
2021/09/29 07:19:11;;;;;;;16.37;6.40;;;;;;;;;;5015757;28;20408;-75
2021/09/29 07:21:37;;;;;;;28.07;6.80;;;;;;;;;;5015698;28;20366;-74
2021/09/29 07:24:05;;;;;;;19.47;7.37;;;;;;;;;;5015839;28;20773;-75
2021/09/29 07:26:33;;;;;;;18.50;6.87;;;;;;;;;;5015818;28;20514;-75
2021/09/29 07:28:59;;;;;;;13.33;6.10;;;;;;;;;;5034490;28;20446;-75
2021/09/29 07:31:27;;;;;;;15.97;6.80;;;;;;;;;;5035315;28;20426;-76
2021/09/29 07:33:53;;;;;;;16.73;5.60;;;;;;;;;;5035132;28;20427;-76
2021/09/29 07:36:29;;;;;;;19.33;5.60;;;;;;;;;;5034711;28;20916;-77
2021/09/29 07:38:55;;;;;;;10.57;4.33;;;;;;;;;;5015644;28;20527;-76
2021/09/29 07:41:21;;;;;;;17.87;4.93;;;;;;;;;;5014959;28;20890;-76
2021/09/29 07:43:47;;;;;;;15.73;4.80;;;;;;;;;;5015030;28;20429;-76
2021/09/29 07:46:13;;;;;;;13.03;4.70;;;;;;;;;;5015666;28;20487;-75
2021/09/29 07:48:40;;;;;;;8.93;4.50;;;;;;;;;;5033298;28;20411;-78
2021/09/29 07:51:13;;;;;;;10.50;3.97;;;;;;;;;;5033870;28;20855;-75
2021/09/29 07:53:47;;;;;;;10.27;4.03;;;;;;;;;;5034709;28;20880;-75
2021/09/29 07:56:13;;;;;;;14.00;4.30;;;;;;;;;;5034992;28;20866;-75
2021/09/29 07:58:41;;;;;;;6.70;3.67;;;;;;;;;;5034026;28;20386;-75
2021/09/29 08:01:07;;;;;;;5.93;3.37;;;;;;;;;;5033867;28;20401;-75
2021/09/29 08:03:33;;;;;;;9.43;3.97;;;;;;;;;;5029547;28;20601;-75
2021/09/29 08:06:05;;;;;;;14.13;3.67;;;;;;;;;;5014741;28;20976;-75
2021/09/29 08:08:31;;;;;;;17.27;3.90;;;;;;;;;;5017129;28;20412;-75
2021/09/29 08:11:17;;;;;;;17.57;3.70;;;15.50;1.00;;;;;;5090544;28;20609;-73
2021/09/29 08:13:46;;;;;;;9.53;3.30;;;15.50;1.00;;;;;;5074808;28;20452;-73
2021/09/29 08:16:12;;;;;;;9.33;3.17;;;15.70;1.00;;;;;;5089051;28;20400;-73
2021/09/29 08:18:38;;;;;;;3.33;2.80;;;;;;;;;;5058092;28;20404;-73
2021/09/29 08:21:08;;;;;;;6.10;2.83;;;15.70;1.00;;;;;;5065988;28;20705;-73
2021/09/29 08:23:38;;;;;;;11.50;2.67;;;15.60;1.00;;;;;;5050971;28;20424;-73
2021/09/29 08:26:35;;;;;;;15.37;3.17;;;15.50;1.00;;;;;;5050603;28;20425;-73
2021/09/29 08:32:03;;;;;;;6.47;3.20;;;;;;;;;;5051378;28;20389;-74
2021/09/29 08:44:55;;;;;;;7.50;2.87;;;16.10;1.00;;;;;;5050350;28;20413;-74
2021/09/29 08:47:34;;;;;;;6.07;2.83;;;16.20;1.00;;;;;;5050938;28;20925;-73
2021/09/29 09:17:04;;;;;;;10.07;2.60;;;17.50;1.00;;;;;;5067924;28;20417;-77
2021/09/29 09:19:31;;;;;;;13.10;2.70;;;;;;;;;;5068787;28;20403;-76
2021/09/29 09:21:59;;;;;;;6.67;2.00;;;;;;;;;;5059304;28;20441;-76
2021/09/29 09:24:31;;;;;;;6.87;2.17;;;17.70;1.00;;;;;;5043938;28;20420;-82
2021/09/29 09:26:59;;;;;;;7.67;2.43;;;;;;;;;;5053655;28;20907;-82
2021/09/29 09:29:25;;;;;;;10.83;2.20;;;;;;;;;;5052053;28;20529;-82
2021/09/29 09:32:28;;;;;;;7.13;2.03;;;17.90;1.00;;;;;;5056398;28;20401;-83
2021/09/29 09:35:07;;;;;;;15.93;2.57;;;18.00;1.00;;;;;;5055763;28;20860;-78
2021/09/29 09:37:33;;;;;;;14.67;2.33;;;;;;;;;;5055389;28;20428;-72
2021/09/29 09:40:06;;;;;;;126.87;11.40;;;18.10;1.00;;;;;;5050954;28;21028;-79
2021/09/29 09:42:58;;;;;;;6.43;2.10;;;18.10;1.00;;;;;;5050976;28;20851;-79
2021/09/29 09:45:44;;;;;;;6.43;2.00;;;;;;;;;;5041799;28;20594;-80
2021/09/29 09:48:23;;;;;;;3.83;1.30;;;18.10;1.00;;;;;;5036098;28;20451;-81
2021/09/29 09:51:07;;;;;;;3.50;1.37;;;18.10;1.00;;;;;;5058550;28;20783;-74
2021/09/29 09:53:34;;;;;;;5.47;1.50;;;;;;;;;;5035553;28;21062;-74
2021/09/29 09:56:15;;;;;;;4.00;1.67;;;18.00;1.00;;;;;;5065399;28;20406;-73
2021/09/29 09:58:49;;;;;;;7.20;1.80;;;;;;;;;;5043841;28;20977;-73
2021/09/29 10:01:18;;;;;;;13.13;2.10;;;;;;;;;;5034821;28;20426;-73
2021/09/29 10:03:45;;;;;;;9.63;1.37;;;;;;;;;;5059403;28;20452;-74
2021/09/29 10:06:11;;;;;;;4.87;1.40;;;;;;;;;;5050386;28;20431;-73
2021/09/29 10:08:39;;;;;;;6.30;1.40;;;;;;;;;;5034633;28;20450;-73
2021/09/29 10:11:08;;;;;;;4.47;1.47;;;;;;;;;;5034588;28;20538;-80
2021/09/29 10:28:11;;;;;;;5.53;1.20;;;18.50;1.00;;;;;;5046265;28;20559;-79
2021/09/29 10:30:59;;;;;;;12.27;1.40;;;18.50;1.00;;;;;;5053220;28;20455;-76
2021/09/29 10:33:29;;;;;;;5.50;1.00;;;;;;;;;;5051474;28;20503;-75
2021/09/29 10:36:08;;;;;;;4.17;1.10;;;18.30;1.00;;;;;;5052351;28;20944;-75
2021/09/29 10:41:11;;;;;;;12.47;1.63;;;18.40;1.00;;;;;;5043819;28;20526;-75
2021/09/29 10:44:06;;;;;;;16.67;2.23;;;18.60;1.00;;;;;;5044908;28;20438;-75
2021/09/29 10:46:53;;;;;;;8.83;1.40;;;;;;;;;;5037095;28;20425;-76
2021/09/29 10:50:23;;;;;;;20.10;2.20;;;;;;;;;;5087815;28;20845;-75
2021/09/29 11:11:45;;;;;;;8.07;1.20;;;;;;;;;;5037041;28;20497;-81
2021/09/29 11:31:46;;;;;;;19.30;1.70;;;;;;;;;;5052351;28;20398;-82
2021/09/29 11:34:18;;;;;;;2.70;1.10;;;;;;;;;;5061385;28;20420;-81
2021/09/29 11:36:58;;;;;;;10.73;1.50;;;;;;;;;;5067277;28;20409;-81
2021/09/29 11:39:44;;;;;;;9.97;1.37;;;;;;;;;;5053826;28;20448;-79
2021/09/29 12:11:31;;;;;;;1.13;0.70;;;;;;;;;;4972677;28;20509;-81
2021/09/29 12:14:12;;;;;;;10.03;1.47;;;;;;;;;;4972270;28;20416;-82
2021/09/29 12:16:58;;;;;;;11.33;1.07;;;18.50;1.00;;;;;;4972582;28;20464;-81
2021/09/29 12:19:35;;;;;;;4.43;0.97;;;;;;;;;;4956302;28;20550;-82
2021/09/29 12:22:18;;;;;;;0.80;0.70;;;18.00;1.00;;;;;;4956520;28;20402;-84
2021/09/29 12:25:10;;;;;;;1.90;0.80;;;17.60;1.00;;;;;;4972638;28;20408;-85
2021/09/29 12:30:20;;;;;;;7.13;0.97;;;15.70;1.00;;;;;;5011080;28;20758;-76
2021/09/29 12:33:22;;;;;;;14.60;1.33;;;15.10;1.00;;;;;;5017420;28;20422;-76
2021/09/29 12:35:56;;;;;;;4.60;0.80;;;14.50;1.00;;;;;;5053407;28;20394;-79
2021/09/29 12:38:51;;;;;;;5.33;0.87;;;14.10;1.00;;;;;;5053374;28;20444;-76
2021/09/29 12:41:27;;;;;;;4.00;0.70;;;;;;;;;;5051882;28;20468;-79
2021/09/29 12:44:13;;;;;;;9.60;1.20;;;13.90;1.00;;;;;;5051616;28;20860;-76
2021/09/29 12:46:44;;;;;;;5.90;1.07;;;;;;;;;;5040130;28;20906;-76
2021/09/29 12:49:20;;;;;;;2.47;0.83;;;;;;;;;;5051418;28;20401;-76
2021/09/29 12:51:59;;;;;;;3.43;1.00;;;14.00;1.00;;;;;;5051045;28;20409;-76
2021/09/29 12:54:26;;;;;;;2.00;0.80;;;;;;;;;;5053265;28;20400;-75
2021/09/29 12:56:52;;;;;;;4.27;1.30;;;;;;;;;;5055694;28;20481;-76
2021/09/29 12:59:18;;;;;;;18.03;2.03;;;;;;;;;;5056249;28;20743;-75
2021/09/29 13:01:44;;;;;;;3.80;1.10;;;;;;;;;;5056949;28;20393;-76
2021/09/29 13:04:10;;;;;;;2.53;0.90;;;;;;;;;;5056909;28;20771;-76
2021/09/29 13:06:53;;;;;;;3.70;1.13;;;;;;;;;;5056954;28;20389;-76
2021/09/29 13:09:18;;;;;;;7.40;1.10;;;15.60;1.00;;;;;;5036560;28;20911;-76
2021/09/29 13:11:44;;;;;;;4.07;1.30;;;;;;;;;;5036694;28;20423;-76
2021/09/29 13:14:10;;;;;;;2.00;0.90;;;;;;;;;;5036341;28;20656;-76
2021/09/29 13:16:36;;;;;;;3.67;0.70;;;;;;;;;;5056830;28;20409;-76
2021/09/29 13:19:09;;;;;;;9.87;1.27;;;;;;;;;;5039531;28;20427;-76
2021/09/29 13:21:39;;;;;;;6.77;1.30;;;;;;;;;;5045237;28;20422;-77
2021/09/29 13:24:14;;;;;;;5.60;1.80;;;;;;;;;;5046411;28;20385;-76
2021/09/29 13:37:23;;;;;;;10.80;1.33;;;;;;;;;;5052113;28;20526;-76
2021/09/29 13:39:51;;;;;;;28.93;1.17;;;;;;;;;;5045312;28;20442;-76
2021/09/29 13:42:17;;;;;;;2.80;1.23;;;;;;;;;;5056060;28;20357;-76
2021/09/29 13:44:59;;;;;;;2.67;0.80;;;;;;;;;;5043234;28;20423;-76
2021/09/29 13:47:25;;;;;;;6.13;1.03;;;16.90;1.00;;;;;;5056281;28;20404;-76
2021/09/29 13:49:51;;;;;;;4.93;1.10;;;;;;;;;;5051584;28;20390;-76
2021/09/29 13:52:23;;;;;;;5.07;0.87;;;;;;;;;;5036334;28;20424;-76
2021/09/29 13:54:52;;;;;;;1.60;0.70;;;;;;;;;;5035574;28;20397;-76
2021/09/29 13:57:30;;;;;;;17.20;1.83;;;;;;;;;;5035525;28;20868;-76
2021/09/29 14:00:16;;;;;;;5.53;0.90;;;;;;;;;;5042917;28;20958;-76
2021/09/29 14:30:49;;;;;;;1.60;0.70;;;;;;;;;;4993689;28;20798;-75
2021/09/29 14:35:45;;;;;;;2.40;0.73;;;17.50;1.00;;;;;;5013471;28;20418;-77
2021/09/29 14:38:11;;;;;;;1.10;0.50;;;;;;;;;;5004732;28;20425;-78
2021/09/29 14:40:37;;;;;;;5.70;0.50;;;17.60;1.00;;;;;;5013165;28;20455;-76
2021/09/29 14:43:04;;;;;;;1.30;0.50;;;;;;;;;;5005781;28;21030;-77
2021/09/29 14:45:30;;;;;;;4.33;0.93;;;;;;;;;;4993985;28;20443;-76
2021/09/29 14:47:56;;;;;;;3.97;0.93;;;;;;;;;;4998193;28;20442;-75
2021/09/29 14:50:28;;;;;;;10.33;0.93;;;;;;;;;;4993790;28;20736;-73
2021/09/29 14:52:56;;;;;;;6.03;0.80;;;17.50;1.00;;;;;;5004814;28;20446;-73
2021/09/29 14:55:28;;;;;;;6.83;0.90;;;17.30;1.00;;;;;;4996620;28;20417;-74
2021/09/29 14:58:05;;;;;;;6.53;1.00;;;;;;;;;;5005874;28;20433;-73
2021/09/29 15:00:35;;;;;;;6.57;1.10;;;;;;;;;;5009843;28;20460;-74
2021/09/29 15:03:11;;;;;;;4.93;0.80;;;;;;;;;;5019119;28;20428;-75
2021/09/29 15:05:54;;;;;;;3.10;0.60;;;;;;;;;;5035172;28;20399;-75
2021/09/29 15:08:23;;;;;;;0.90;0.50;;;;;;;;;;5034987;28;20373;-83
2021/09/29 15:17:37;;;;;;;0.70;0.40;;;16.40;1.00;;;;;;5034733;28;20407;-86
2021/09/29 15:22:53;;;;;;;6.20;0.83;;;;;;;;;;5034778;28;20422;-72
2021/09/29 15:47:27;;;;;;;3.73;0.50;;;;;;;;;;5049759;28;20401;-74
2021/09/29 15:52:32;;;;;;;5.33;0.80;;;;;;;;;;5045591;28;20423;-74
2021/09/29 15:55:10;;;;;;;2.80;0.70;;;;;;;;;;5035229;28;20753;-74
2021/09/29 16:00:18;;;;;;;2.17;0.60;;;24.90;1.00;;;;;;5051427;28;20462;-74
2021/09/29 16:02:49;;;;;;;6.53;0.93;;;;;;;;;;5053098;28;20467;-74
2021/09/29 16:07:53;;;;;;;1.27;0.50;;;;;;;;;;5049970;28;20419;-74
2021/09/29 16:19:40;;;;;;;0.70;0.50;;;18.90;1.00;;;;;;5053803;28;20484;-80
2021/09/29 16:30:25;;;;;;;12.80;1.10;;;;;;;;;;5033483;28;20980;-73
2021/09/29 16:33:06;;;;;;;2.27;0.60;;;;;;;;;;5037095;28;20716;-73
2021/09/29 16:35:38;;;;;;;2.57;0.70;;;;;;;;;;5037065;28;20870;-73
2021/09/29 16:38:04;;;;;;;1.30;0.53;;;;;;;;;;5047086;28;20385;-74
2021/09/29 16:40:30;;;;;;;7.13;1.17;;;;;;;;;;5057157;28;20492;-75
2021/09/29 16:42:57;;;;;;;4.83;0.83;;;;;;;;;;5046671;28;20408;-74
2021/09/29 16:45:25;;;;;;;2.47;0.60;;;;;;;;;;5052929;28;20417;-75
2021/09/29 16:47:54;;;;;;;1.93;0.67;;;15.30;1.00;;;;;;5057145;28;20402;-75
2021/09/29 16:50:29;;;;;;;1.63;0.50;;;;;;;;;;5056873;28;20848;-75
2021/09/29 16:52:57;;;;;;;17.00;1.27;;;;;;;;;;5039754;28;20411;-76
2021/09/29 16:55:28;;;;;;;1.23;0.77;;;;;;;;;;5052020;28;20792;-76
2021/09/29 16:58:07;;;;;;;1.63;0.60;;;;;;;;;;5056291;28;20418;-76
2021/09/29 17:00:48;;;;;;;2.33;0.70;;;;;;;;;;5056511;28;20416;-75
2021/09/29 17:03:14;;;;;;;1.77;0.70;;;;;;;;;;5048858;28;20465;-76
2021/09/29 17:05:53;;;;;;;0.57;0.47;;;;;;;;;;5037209;28;20852;-83
2021/09/29 17:08:19;;;;;;;2.47;0.60;;;;;;;;;;5036638;28;20632;-75
2021/09/29 17:10:47;;;;;;;6.73;0.90;;;;;;;;;;5036522;28;20417;-75
2021/09/29 17:13:15;;;;;;;0.93;0.60;;;;;;;;;;5035739;28;20397;-75
2021/09/29 17:15:48;;;;;;;1.03;0.50;;;;;;;;;;5036882;28;20392;-74
2021/09/29 17:18:14;;;;;;;1.30;0.70;;;;;;;;;;5037420;28;20415;-76
2021/09/29 17:20:41;;;;;;;1.83;0.70;;;;;;;;;;5036778;28;20938;-75
2021/09/29 17:23:09;;;;;;;5.30;1.00;;;;;;;;;;5036918;28;20702;-75
2021/09/29 17:25:41;;;;;;;1.60;0.80;;;;;;;;;;5035654;28;20374;-75
2021/09/29 17:28:23;;;;;;;1.50;0.70;;;;;;;;;;5045042;28;20441;-77
2021/09/29 17:31:13;;;;;;;3.07;0.80;;;14.20;1.00;;;;;;5053976;28;20848;-75
2021/09/29 17:52:21;;;;;;;4.70;0.97;;;;;;;;;;5014754;28;20402;-74
2021/09/29 17:54:47;;;;;;;3.90;1.10;;;;;;;;;;5013994;28;20486;-74
2021/09/29 17:57:13;;;;;;;1.47;0.67;;;;;;;;;;5014118;28;20378;-73
2021/09/29 17:59:43;;;;;;;6.03;0.83;;;;;;;;;;4994139;28;20510;-73
2021/09/29 18:02:14;;;;;;;2.10;1.03;;;;;;;;;;4994351;28;20423;-73
2021/09/29 18:04:42;;;;;;;1.50;0.80;;;;;;;;;;5013620;28;21014;-74
2021/09/29 18:07:11;;;;;;;1.63;0.70;;;;;;;;;;5013565;28;20403;-73
2021/09/29 18:09:37;;;;;;;2.50;1.07;;;13.30;1.00;;;;;;4997708;28;20542;-74
2021/09/29 18:12:04;;;;;;;6.30;0.90;;;13.30;1.00;;;;;;4997438;28;20498;-74
2021/09/29 18:14:35;;;;;;;4.50;0.87;;;;;;;;;;5013663;28;20200;-74
2021/09/29 18:17:03;;;;;;;1.43;0.60;;;;;;;;;;5013767;28;20853;-75
2021/09/29 18:19:47;;;;;;;1.27;0.70;;;;;;;;;;5013870;28;20402;-77
2021/09/29 18:22:17;;;;;;;1.83;0.87;;;;;;;;;;5035145;28;20481;-76
2021/09/29 18:24:47;;;;;;;0.97;0.70;;;;;;;;;;5036025;28;20391;-81
2021/09/29 18:27:13;;;;;;;2.87;0.80;;;;;;;;;;5054399;28;20446;-75
2021/09/29 18:29:39;;;;;;;2.97;0.80;;;;;;;;;;5056742;28;20795;-75
2021/09/29 18:32:17;;;;;;;11.77;1.30;;;;;;;;;;5055285;28;20426;-75
2021/09/29 18:35:13;;;;;;;1.87;0.70;;;13.30;1.00;;;;;;5055134;28;20800;-75
2021/09/29 18:37:41;;;;;;;4.13;0.97;;;;;;;;;;5053435;28;20401;-74
2021/09/29 18:40:09;;;;;;;3.13;0.80;;;;;;;;;;5035036;28;20421;-74
2021/09/29 18:42:35;;;;;;;2.57;1.00;;;;;;;;;;5034977;28;20391;-74
2021/09/29 18:45:01;;;;;;;1.10;0.77;;;;;;;;;;5055409;28;20416;-75
2021/09/29 18:47:27;;;;;;;2.73;0.80;;;;;;;;;;5053126;28;20823;-74